Time;durP1;ratioP1;P1;durP2;ratioP2;P2;SDS_P1;SDS_P2;PMS_P1;PMS_P2;Temp;Humidity;BMP_temperature;BMP_pressure;BME280_temperature;BME280_humidity;BME280_pressure;Samples;Min_cycle;Max_cycle;Signal;HPM_P1;HPM_P2
2023/09/28 00:00:45;;;;;;;54.33;7.68;;;17.30;81.60;;;;;;5065401;28;20377;-70
2023/09/28 00:03:10;;;;;;;45.92;6.45;;;17.40;80.90;;;;;;5052793;28;20044;-70
2023/09/28 00:05:35;;;;;;;48.15;7.20;;;17.40;80.80;;;;;;5059958;28;20037;-71
2023/09/28 00:08:02;;;;;;;47.75;7.18;;;17.30;81.30;;;;;;5054253;28;20024;-70
2023/09/28 00:10:28;;;;;;;49.67;7.05;;;17.30;79.50;;;;;;5061513;28;20089;-70
2023/09/28 00:12:54;;;;;;;37.10;6.10;;;17.30;79.40;;;;;;5052514;28;20381;-71
2023/09/28 00:15:21;;;;;;;40.70;5.88;;;17.20;78.30;;;;;;5066412;28;20141;-71
2023/09/28 00:17:48;;;;;;;34.67;6.07;;;17.10;77.00;;;;;;5053897;28;20044;-71
2023/09/28 00:20:18;;;;;;;29.30;5.32;;;17.00;77.30;;;;;;5062506;28;20039;-70
2023/09/28 00:22:44;;;;;;;27.13;4.88;;;17.00;76.90;;;;;;5051568;28;20039;-71
2023/09/28 00:25:11;;;;;;;36.15;5.85;;;17.20;75.90;;;;;;5063150;28;20021;-71
2023/09/28 00:27:39;;;;;;;33.25;5.22;;;17.20;76.00;;;;;;5055942;28;20184;-71
2023/09/28 00:30:09;;;;;;;35.08;5.80;;;17.20;76.30;;;;;;5066693;28;20043;-71
2023/09/28 00:32:35;;;;;;;37.13;5.22;;;17.20;76.20;;;;;;5047539;28;20036;-71
2023/09/28 00:35:04;;;;;;;35.65;5.13;;;17.10;76.10;;;;;;5068032;28;20339;-71
2023/09/28 00:37:30;;;;;;;33.47;5.03;;;17.10;76.50;;;;;;5055581;28;20035;-70
2023/09/28 00:39:56;;;;;;;43.40;5.90;;;17.10;76.60;;;;;;5061405;28;20059;-72
2023/09/28 00:42:22;;;;;;;33.53;5.25;;;17.00;76.30;;;;;;5062781;28;20396;-71
2023/09/28 00:44:48;;;;;;;38.53;4.97;;;17.00;76.10;;;;;;5055359;28;20515;-71
2023/09/28 00:47:15;;;;;;;35.42;5.95;;;17.10;76.60;;;;;;5068978;28;20024;-71
2023/09/28 00:49:42;;;;;;;44.38;6.40;;;17.00;77.20;;;;;;5059185;28;20039;-71
2023/09/28 00:52:08;;;;;;;35.38;5.05;;;17.00;77.60;;;;;;5064888;28;20123;-72
2023/09/28 00:54:35;;;;;;;34.03;4.75;;;17.00;77.20;;;;;;5054981;28;20322;-71
2023/09/28 00:57:00;;;;;;;33.72;5.28;;;17.00;76.00;;;;;;5072678;28;20198;-73
2023/09/28 00:59:26;;;;;;;30.35;5.57;;;17.00;75.50;;;;;;5054258;28;20412;-71
2023/09/28 01:01:54;;;;;;;29.63;4.18;;;17.00;74.10;;;;;;5070099;28;20476;-71
2023/09/28 01:04:22;;;;;;;26.65;4.22;;;17.00;72.50;;;;;;5050180;28;20031;-72
2023/09/28 01:06:48;;;;;;;29.25;4.25;;;17.10;71.90;;;;;;5066004;28;20340;-72
2023/09/28 01:09:15;;;;;;;18.08;3.33;;;16.90;72.20;;;;;;5056084;28;20114;-72
2023/09/28 01:11:41;;;;;;;25.40;3.85;;;16.90;71.80;;;;;;5062029;28;20794;-72
2023/09/28 01:14:07;;;;;;;25.13;3.85;;;16.90;72.20;;;;;;5049898;28;20115;-72
2023/09/28 01:16:33;;;;;;;28.50;4.28;;;16.90;72.70;;;;;;5071044;28;20032;-72
2023/09/28 01:18:59;;;;;;;29.67;4.85;;;16.90;72.80;;;;;;5046504;28;20408;-70
2023/09/28 01:21:25;;;;;;;25.88;4.85;;;17.00;72.90;;;;;;5071639;28;20032;-72
2023/09/28 01:23:51;;;;;;;24.65;4.38;;;17.00;72.70;;;;;;5057271;28;20118;-70
2023/09/28 01:26:17;;;;;;;31.70;4.97;;;17.00;73.00;;;;;;5066890;28;20137;-71
2023/09/28 01:28:43;;;;;;;39.65;5.80;;;17.00;73.60;;;;;;5071216;28;20040;-71
2023/09/28 01:31:08;;;;;;;37.40;4.63;;;16.90;74.30;;;;;;5054149;28;20555;-72
2023/09/28 01:33:34;;;;;;;36.90;6.05;;;16.90;74.70;;;;;;5063008;28;20551;-70
2023/09/28 01:36:00;;;;;;;29.85;4.80;;;16.90;75.60;;;;;;5055867;28;20445;-70
2023/09/28 01:38:51;;;;;;;32.38;5.40;;;16.90;75.10;;;;;;5067360;28;20043;-70
2023/09/28 01:41:16;;;;;;;41.67;5.70;;;16.90;75.50;;;;;;5055001;28;20831;-70
2023/09/28 01:43:42;;;;;;;34.63;4.63;;;16.90;76.10;;;;;;5067768;28;20300;-71
2023/09/28 01:46:09;;;;;;;27.30;4.35;;;16.80;76.40;;;;;;5052279;28;20028;-70
2023/09/28 01:48:35;;;;;;;36.58;4.32;;;16.70;76.30;;;;;;5073017;28;20051;-70
2023/09/28 01:51:02;;;;;;;41.45;5.40;;;16.70;76.90;;;;;;5056306;28;21173;-71
2023/09/28 01:53:27;;;;;;;39.10;5.45;;;16.70;77.30;;;;;;5063585;28;20036;-70
2023/09/28 01:55:53;;;;;;;36.88;4.65;;;16.60;77.90;;;;;;5058807;28;20040;-70
2023/09/28 01:58:19;;;;;;;36.17;5.45;;;16.60;76.50;;;;;;5069248;28;20439;-70
2023/09/28 02:00:46;;;;;;;37.33;5.93;;;16.60;76.30;;;;;;5055402;28;20538;-70
2023/09/28 02:03:11;;;;;;;33.85;4.88;;;16.60;76.90;;;;;;5056017;28;20086;-71
2023/09/28 02:05:37;;;;;;;34.28;4.55;;;16.60;77.50;;;;;;5045881;28;20036;-71
2023/09/28 02:08:05;;;;;;;31.17;5.63;;;16.50;77.90;;;;;;5063941;28;20556;-71
2023/09/28 02:10:31;;;;;;;33.87;5.30;;;16.40;78.20;;;;;;5050078;28;20036;-71
2023/09/28 02:12:57;;;;;;;27.08;4.32;;;16.40;78.40;;;;;;5059146;28;20275;-71
2023/09/28 02:15:23;;;;;;;39.13;5.30;;;16.40;78.50;;;;;;5064576;28;20443;-71
2023/09/28 02:17:50;;;;;;;36.67;5.22;;;16.30;78.50;;;;;;5050185;28;20147;-71
2023/09/28 02:20:16;;;;;;;30.38;4.75;;;16.20;78.50;;;;;;5061936;28;20032;-71
2023/09/28 02:22:43;;;;;;;34.03;4.50;;;16.30;77.80;;;;;;5054281;28;20147;-71
2023/09/28 02:25:10;;;;;;;28.58;4.90;;;16.30;78.00;;;;;;5066284;28;20030;-71
2023/09/28 02:27:36;;;;;;;28.67;4.57;;;16.40;77.70;;;;;;5051876;28;20107;-70
2023/09/28 02:30:04;;;;;;;37.63;4.55;;;16.40;77.70;;;;;;5070898;28;20028;-72
2023/09/28 02:32:30;;;;;;;25.25;5.10;;;16.40;77.90;;;;;;5050387;28;20040;-71
2023/09/28 02:34:55;;;;;;;27.80;4.20;;;16.40;78.10;;;;;;5067835;28;20378;-71
2023/09/28 02:37:21;;;;;;;37.13;4.50;;;16.30;78.20;;;;;;5050801;28;20055;-71
2023/09/28 02:39:46;;;;;;;25.38;3.67;;;16.40;77.30;;;;;;5061564;28;20240;-71
2023/09/28 02:42:12;;;;;;;25.48;3.92;;;16.50;76.90;;;;;;5053349;28;20028;-71
2023/09/28 02:44:37;;;;;;;26.13;4.30;;;16.60;76.30;;;;;;5067509;28;20036;-71
2023/09/28 02:47:05;;;;;;;34.05;4.75;;;16.70;75.90;;;;;;5049384;28;20061;-71
2023/09/28 02:49:32;;;;;;;30.20;3.83;;;16.80;75.50;;;;;;5067455;28;20028;-70
2023/09/28 02:51:59;;;;;;;28.70;4.18;;;16.80;74.80;;;;;;5048710;28;20032;-71
2023/09/28 02:54:25;;;;;;;34.08;4.45;;;16.90;75.40;;;;;;5063823;28;20033;-70
2023/09/28 02:56:51;;;;;;;29.92;3.72;;;16.90;74.50;;;;;;5064353;28;20544;-70
2023/09/28 02:59:17;;;;;;;30.95;4.50;;;16.90;74.60;;;;;;5059602;28;20039;-70
2023/09/28 03:01:43;;;;;;;29.02;3.80;;;17.00;75.00;;;;;;5065125;28;20555;-71
2023/09/28 03:04:10;;;;;;;24.23;4.10;;;17.00;74.80;;;;;;5055417;28;20038;-71
2023/09/28 03:06:37;;;;;;;29.17;3.72;;;17.00;74.70;;;;;;5066187;28;20507;-72
2023/09/28 03:09:03;;;;;;;30.02;4.15;;;17.00;74.30;;;;;;5053676;28;20122;-71
2023/09/28 03:11:29;;;;;;;26.17;3.67;;;17.10;74.30;;;;;;5069932;28;20020;-72
2023/09/28 03:13:56;;;;;;;21.23;3.72;;;17.10;73.00;;;;;;5047576;28;20204;-70
2023/09/28 03:16:21;;;;;;;21.75;2.80;;;17.10;72.60;;;;;;5066959;28;20033;-70
2023/09/28 03:18:47;;;;;;;22.70;3.25;;;17.20;72.00;;;;;;5045005;28;20310;-72
2023/09/28 03:21:13;;;;;;;27.33;4.38;;;17.10;72.40;;;;;;5064804;28;20025;-71
2023/09/28 03:23:39;;;;;;;23.00;3.63;;;17.20;72.40;;;;;;5051920;28;20387;-71
2023/09/28 03:26:05;;;;;;;22.15;3.40;;;17.10;72.00;;;;;;5065939;28;20032;-72
2023/09/28 03:28:31;;;;;;;27.48;3.78;;;17.20;72.00;;;;;;5053339;28;20042;-71
2023/09/28 03:30:56;;;;;;;16.75;3.40;;;17.20;72.10;;;;;;5072209;28;20034;-72
2023/09/28 03:33:22;;;;;;;19.35;3.20;;;17.20;72.20;;;;;;5049975;28;20598;-71
2023/09/28 03:35:48;;;;;;;20.08;3.35;;;17.20;72.00;;;;;;5071083;28;20523;-71
2023/09/28 03:38:13;;;;;;;17.83;3.70;;;17.20;72.00;;;;;;5061614;28;20036;-72
2023/09/28 03:40:43;;;;;;;18.35;3.28;;;17.20;72.20;;;;;;5056106;28;20027;-71
2023/09/28 03:43:09;;;;;;;25.50;3.63;;;17.20;72.80;;;;;;5070768;28;20503;-71
2023/09/28 03:45:34;;;;;;;21.88;3.00;;;17.20;73.10;;;;;;5050041;28;20085;-72
2023/09/28 03:48:00;;;;;;;23.60;3.78;;;17.20;74.10;;;;;;5065367;28;20083;-71
2023/09/28 03:50:26;;;;;;;18.67;3.65;;;17.20;75.50;;;;;;5054498;28;20181;-71
2023/09/28 03:52:52;;;;;;;26.95;3.88;;;17.20;75.80;;;;;;5061505;28;20189;-72
2023/09/28 03:55:19;;;;;;;24.73;3.67;;;17.10;74.90;;;;;;5055553;28;20796;-72
2023/09/28 03:57:46;;;;;;;25.50;4.10;;;17.10;74.90;;;;;;5067844;28;20036;-71
2023/09/28 04:00:14;;;;;;;26.10;3.70;;;17.10;74.90;;;;;;5051591;28;20032;-72
2023/09/28 04:02:44;;;;;;;30.67;3.85;;;17.10;75.10;;;;;;5060968;28;20040;-71
2023/09/28 04:05:09;;;;;;;29.80;4.32;;;17.20;75.10;;;;;;5035085;28;20024;-71
2023/09/28 04:07:35;;;;;;;22.98;4.07;;;17.10;74.80;;;;;;5062980;28;20042;-71
2023/09/28 04:10:01;;;;;;;27.60;3.47;;;17.10;75.00;;;;;;5057102;28;20055;-71
2023/09/28 04:12:28;;;;;;;37.50;3.97;;;17.10;74.80;;;;;;5057991;28;20039;-71
2023/09/28 04:14:54;;;;;;;24.83;3.55;;;17.10;74.30;;;;;;5056518;28;20127;-71
2023/09/28 04:17:19;;;;;;;21.58;3.33;;;17.10;74.00;;;;;;5068224;28;20136;-71
2023/09/28 04:19:45;;;;;;;18.27;2.85;;;17.10;73.50;;;;;;5052546;28;20039;-71
2023/09/28 04:22:11;;;;;;;21.88;3.22;;;17.10;71.20;;;;;;5071771;28;20036;-71
2023/09/28 04:24:37;;;;;;;15.77;2.08;;;17.10;71.60;;;;;;5068296;28;20121;-71
2023/09/28 04:27:02;;;;;;;17.30;2.50;;;17.00;70.60;;;;;;5049651;28;21146;-70
2023/09/28 04:29:28;;;;;;;15.25;2.50;;;16.90;70.70;;;;;;5075444;28;20036;-70
2023/09/28 04:31:54;;;;;;;22.70;2.78;;;16.90;71.30;;;;;;5059374;28;20091;-71
2023/09/28 04:34:21;;;;;;;22.08;4.25;;;16.90;70.80;;;;;;5062585;28;20545;-70
2023/09/28 04:36:49;;;;;;;22.25;4.20;;;16.90;71.00;;;;;;5059180;28;20028;-70
2023/09/28 04:39:17;;;;;;;18.30;3.22;;;16.90;71.40;;;;;;5066508;28;20028;-71
2023/09/28 04:41:43;;;;;;;18.98;2.70;;;16.90;71.50;;;;;;5057311;28;20143;-70
2023/09/28 04:44:09;;;;;;;21.17;2.80;;;16.90;71.80;;;;;;5072803;28;20024;-70
2023/09/28 04:46:35;;;;;;;18.60;2.55;;;16.80;72.40;;;;;;5052678;28;20051;-71
2023/09/28 04:49:01;;;;;;;20.45;2.65;;;16.80;72.70;;;;;;5066801;28;20139;-71
2023/09/28 04:51:29;;;;;;;20.02;3.25;;;16.80;72.50;;;;;;5055407;28;20447;-71
2023/09/28 04:53:55;;;;;;;17.17;2.50;;;16.80;72.90;;;;;;5065296;28;20486;-71
2023/09/28 04:56:20;;;;;;;14.65;2.63;;;16.80;72.60;;;;;;5060336;28;20042;-71
2023/09/28 04:58:46;;;;;;;13.20;2.75;;;16.80;72.20;;;;;;5072751;28;20028;-71
2023/09/28 05:01:12;;;;;;;17.73;3.03;;;16.90;71.60;;;;;;5054055;28;20040;-71
2023/09/28 05:03:38;;;;;;;19.83;2.65;;;16.90;71.50;;;;;;5070471;28;20060;-72
2023/09/28 05:06:05;;;;;;;23.00;3.50;;;16.90;71.00;;;;;;5069325;28;20048;-71
2023/09/28 05:08:31;;;;;;;16.65;3.25;;;16.90;70.60;;;;;;5047384;28;20025;-71
2023/09/28 05:10:57;;;;;;;17.70;2.30;;;16.90;70.30;;;;;;5070293;28;20059;-73
2023/09/28 05:13:27;;;;;;;19.42;3.00;;;16.90;70.30;;;;;;5048672;28;20587;-71
2023/09/28 05:15:54;;;;;;;17.25;2.65;;;16.90;70.10;;;;;;5057143;28;20032;-72
2023/09/28 05:18:19;;;;;;;16.35;2.72;;;16.90;70.20;;;;;;5052918;28;20475;-71
2023/09/28 05:20:45;;;;;;;21.00;2.88;;;16.90;70.30;;;;;;5061079;28;20060;-72
2023/09/28 05:23:11;;;;;;;16.40;2.53;;;16.90;70.00;;;;;;5058147;28;20120;-72
2023/09/28 05:25:37;;;;;;;16.77;2.88;;;16.90;70.10;;;;;;5067051;28;20109;-71
2023/09/28 05:28:04;;;;;;;15.20;2.22;;;16.90;70.20;;;;;;5054517;28;20403;-72
2023/09/28 05:30:29;;;;;;;14.15;2.40;;;16.90;70.20;;;;;;5072678;28;20082;-72
2023/09/28 05:32:55;;;;;;;18.58;2.63;;;16.90;70.30;;;;;;5057213;28;20523;-71
2023/09/28 05:35:22;;;;;;;30.30;2.90;;;16.90;70.50;;;;;;5067848;28;20037;-70
2023/09/28 05:37:48;;;;;;;23.80;3.38;;;16.90;70.70;;;;;;5057254;28;20439;-71
2023/09/28 05:40:14;;;;;;;15.95;2.90;;;16.90;71.10;;;;;;5067525;28;20032;-72
2023/09/28 05:42:40;;;;;;;17.88;2.72;;;16.80;71.50;;;;;;5053513;28;20217;-71
2023/09/28 05:45:07;;;;;;;19.20;2.65;;;16.80;71.70;;;;;;5071425;28;20042;-72
2023/09/28 05:47:34;;;;;;;16.27;3.08;;;16.80;71.60;;;;;;5047718;28;20242;-72
2023/09/28 05:50:01;;;;;;;19.08;3.10;;;16.80;71.80;;;;;;5063169;28;20499;-72
2023/09/28 05:52:27;;;;;;;16.92;2.78;;;16.80;71.90;;;;;;5065132;28;20134;-72
2023/09/28 05:54:53;;;;;;;21.40;3.45;;;16.80;72.20;;;;;;5049480;28;20449;-72
2023/09/28 05:57:22;;;;;;;18.52;3.25;;;16.80;72.50;;;;;;5067039;28;20136;-71
2023/09/28 05:59:48;;;;;;;24.27;2.83;;;16.80;72.90;;;;;;5055020;28;20158;-71
2023/09/28 06:02:14;;;;;;;21.52;3.03;;;16.80;73.30;;;;;;5066190;28;20269;-72
2023/09/28 06:04:41;;;;;;;21.45;3.65;;;16.80;73.60;;;;;;5039483;28;20034;-72
2023/09/28 06:07:06;;;;;;;28.70;4.22;;;16.80;74.10;;;;;;5062005;28;20020;-71
2023/09/28 06:09:32;;;;;;;23.35;3.38;;;16.80;74.50;;;;;;5055485;28;20401;-72
2023/09/28 06:11:58;;;;;;;29.13;3.53;;;16.80;74.30;;;;;;5058553;28;20048;-71
2023/09/28 06:14:24;;;;;;;30.80;3.83;;;16.80;74.30;;;;;;5047165;28;20781;-72
2023/09/28 06:16:50;;;;;;;19.95;3.70;;;16.80;74.40;;;;;;5058711;28;20039;-71
2023/09/28 06:19:15;;;;;;;26.20;3.20;;;16.80;74.10;;;;;;5046601;28;20416;-71
2023/09/28 06:21:41;;;;;;;22.85;3.58;;;16.80;74.30;;;;;;5063025;28;20115;-71
2023/09/28 06:24:07;;;;;;;24.10;3.42;;;16.80;74.20;;;;;;5054205;28;20438;-71
2023/09/28 06:26:33;;;;;;;23.58;3.33;;;16.70;73.00;;;;;;5066586;28;20147;-71
2023/09/28 06:28:59;;;;;;;18.42;3.17;;;16.70;72.50;;;;;;5052038;28;20475;-72
2023/09/28 06:31:25;;;;;;;19.80;3.13;;;16.70;72.60;;;;;;5068710;28;20043;-71
2023/09/28 06:33:51;;;;;;;24.33;4.13;;;16.70;72.20;;;;;;5064396;28;20232;-71
2023/09/28 06:36:18;;;;;;;26.25;2.72;;;16.60;72.20;;;;;;5058038;28;20021;-72
2023/09/28 06:38:44;;;;;;;21.00;3.70;;;16.60;72.60;;;;;;5044577;28;20056;-71
2023/09/28 06:41:09;;;;;;;17.83;3.17;;;16.60;72.40;;;;;;5040047;28;20047;-72
2023/09/28 06:43:35;;;;;;;20.80;3.45;;;16.60;72.60;;;;;;5057283;28;20039;-71
2023/09/28 06:46:01;;;;;;;24.08;3.55;;;16.60;72.70;;;;;;5030958;28;20028;-71
2023/09/28 06:48:28;;;;;;;30.25;3.60;;;16.70;72.90;;;;;;5034526;28;21202;-72
2023/09/28 06:50:57;;;;;;;20.85;3.08;;;16.60;73.10;;;;;;5035285;28;20032;-72
2023/09/28 06:53:24;;;;;;;19.90;3.90;;;16.70;73.10;;;;;;5047113;28;20510;-70
2023/09/28 06:55:50;;;;;;;25.08;3.05;;;16.70;73.00;;;;;;5032950;28;20777;-70
2023/09/28 06:58:17;;;;;;;28.77;3.70;;;16.60;73.60;;;;;;5050746;28;20037;-69
2023/09/28 07:00:44;;;;;;;25.27;3.63;;;16.50;73.90;;;;;;5033454;28;20035;-71
2023/09/28 07:03:10;;;;;;;21.13;3.50;;;16.40;74.40;;;;;;5050100;28;20028;-71
2023/09/28 07:05:36;;;;;;;25.50;3.75;;;16.40;74.20;;;;;;5043048;28;20512;-71
2023/09/28 07:08:05;;;;;;;22.85;3.28;;;16.40;74.30;;;;;;5044111;28;20245;-72
2023/09/28 07:10:32;;;;;;;26.53;3.83;;;16.50;74.40;;;;;;5027162;28;20040;-71
2023/09/28 07:13:00;;;;;;;17.23;2.95;;;16.50;73.80;;;;;;5045055;28;20066;-71
2023/09/28 07:15:28;;;;;;;21.13;3.10;;;16.60;73.90;;;;;;5032995;28;20037;-71
2023/09/28 07:17:55;;;;;;;15.57;2.90;;;16.70;72.90;;;;;;5045247;28;21400;-71
2023/09/28 07:20:21;;;;;;;21.85;3.47;;;16.80;72.70;;;;;;5037668;28;20041;-74
2023/09/28 07:22:48;;;;;;;19.75;3.35;;;16.80;72.30;;;;;;5030231;28;20040;-75
2023/09/28 07:25:14;;;;;;;22.38;3.05;;;17.00;71.60;;;;;;5049929;28;20182;-75
2023/09/28 07:27:41;;;;;;;17.98;2.88;;;17.10;71.20;;;;;;5029777;28;20127;-76
2023/09/28 07:30:08;;;;;;;21.63;3.17;;;17.10;71.30;;;;;;5045565;28;20060;-73
2023/09/28 07:32:34;;;;;;;22.80;3.17;;;17.20;71.30;;;;;;5030513;28;20036;-73
2023/09/28 07:35:00;;;;;;;24.92;3.88;;;17.30;70.60;;;;;;5047421;28;20284;-74
2023/09/28 07:37:27;;;;;;;28.55;3.40;;;17.30;70.60;;;;;;5032867;28;20479;-74
2023/09/28 07:39:53;;;;;;;23.80;3.70;;;17.40;70.70;;;;;;5047036;28;20031;-72
2023/09/28 07:42:19;;;;;;;23.45;3.67;;;17.50;70.20;;;;;;5036691;28;20039;-74
2023/09/28 07:44:47;;;;;;;20.40;3.78;;;17.60;69.40;;;;;;5063299;28;20108;-74
2023/09/28 07:47:13;;;;;;;22.35;3.35;;;17.50;69.00;;;;;;5036610;28;20024;-72
2023/09/28 07:49:40;;;;;;;18.70;3.40;;;17.60;69.40;;;;;;5045007;28;20040;-74
2023/09/28 07:52:08;;;;;;;29.33;4.55;;;17.70;69.20;;;;;;5042828;28;20617;-73
2023/09/28 07:54:35;;;;;;;32.13;4.43;;;17.60;68.40;;;;;;5047878;28;20032;-75
2023/09/28 07:57:04;;;;;;;27.98;4.53;;;17.50;68.90;;;;;;5038026;28;20078;-75
2023/09/28 07:59:31;;;;;;;21.92;3.90;;;17.50;69.20;;;;;;5043892;28;20188;-74
2023/09/28 08:01:57;;;;;;;21.90;3.28;;;17.50;68.90;;;;;;5043139;28;20066;-73
2023/09/28 08:04:23;;;;;;;29.30;4.15;;;17.40;70.50;;;;;;5040716;28;20440;-71
2023/09/28 08:06:49;;;;;;;25.38;4.03;;;17.30;73.10;;;;;;5041958;28;20024;-73
2023/09/28 08:09:15;;;;;;;21.05;3.90;;;17.20;75.20;;;;;;5034706;28;20037;-73
2023/09/28 08:11:41;;;;;;;32.55;4.53;;;17.30;77.00;;;;;;5051927;28;20032;-72
2023/09/28 08:14:09;;;;;;;27.88;4.18;;;17.50;77.00;;;;;;5041707;28;20293;-74
2023/09/28 08:16:36;;;;;;;27.02;4.22;;;17.70;76.40;;;;;;5046954;28;20092;-73
2023/09/28 08:19:02;;;;;;;26.25;4.10;;;17.80;74.20;;;;;;5040259;28;20060;-72
2023/09/28 08:21:28;;;;;;;27.88;4.50;;;18.00;74.60;;;;;;5044718;28;20148;-74
2023/09/28 08:23:55;;;;;;;30.13;5.30;;;18.30;72.50;;;;;;5038368;28;20028;-73
2023/09/28 08:26:21;;;;;;;23.48;4.15;;;18.50;71.20;;;;;;5055629;28;20097;-74
2023/09/28 08:28:46;;;;;;;32.17;4.10;;;18.60;69.70;;;;;;5058978;28;20123;-74
2023/09/28 08:31:12;;;;;;;28.63;4.70;;;18.60;70.30;;;;;;5056296;28;20970;-75
2023/09/28 08:33:38;;;;;;;27.27;3.92;;;18.60;69.90;;;;;;5038057;28;20743;-74
2023/09/28 08:36:08;;;;;;;18.98;3.55;;;18.60;69.60;;;;;;5057941;28;20039;-75
2023/09/28 08:38:33;;;;;;;23.70;3.70;;;18.50;68.80;;;;;;5050570;28;20145;-72
2023/09/28 08:41:00;;;;;;;25.60;4.78;;;18.40;68.80;;;;;;5056513;28;20701;-76
2023/09/28 08:43:49;;;;;;;25.27;4.20;;;18.40;68.50;;;;;;5048039;28;20143;-76
2023/09/28 08:46:14;;;;;;;24.27;3.65;;;18.30;69.40;;;;;;5055778;28;20037;-75
2023/09/28 08:48:45;;;;;;;21.10;3.70;;;18.30;69.40;;;;;;5041189;28;20041;-74
2023/09/28 08:51:11;;;;;;;25.27;3.67;;;18.50;69.40;;;;;;5054886;28;20352;-75
2023/09/28 08:53:38;;;;;;;23.63;3.72;;;18.60;70.60;;;;;;5045406;28;20040;-73
2023/09/28 08:56:05;;;;;;;16.75;3.58;;;18.70;68.70;;;;;;5042722;28;20074;-75
2023/09/28 08:58:34;;;;;;;22.38;3.92;;;18.90;67.20;;;;;;5058393;28;20067;-75
2023/09/28 09:01:02;;;;;;;23.63;4.00;;;19.10;65.90;;;;;;5038597;28;20040;-74
2023/09/28 09:03:28;;;;;;;21.02;4.50;;;19.00;66.90;;;;;;5053252;28;20155;-75
2023/09/28 09:05:56;;;;;;;24.58;4.25;;;19.20;66.30;;;;;;5046143;28;20028;-75
2023/09/28 09:08:23;;;;;;;25.23;4.03;;;19.40;67.50;;;;;;5052818;28;20034;-76
2023/09/28 09:10:51;;;;;;;22.85;3.78;;;19.40;65.80;;;;;;5042170;28;20047;-76
2023/09/28 09:13:18;;;;;;;31.40;4.97;;;19.20;67.70;;;;;;5062602;28;20044;-73
2023/09/28 09:15:44;;;;;;;30.25;6.72;;;19.20;66.80;;;;;;5044516;28;20032;-74
2023/09/28 09:18:19;;;;;;;36.80;6.88;;;19.10;68.00;;;;;;5062281;28;20051;-75
2023/09/28 09:20:46;;;;;;;37.33;6.07;;;19.20;67.20;;;;;;5048441;28;20044;-74
2023/09/28 09:23:13;;;;;;;33.58;5.80;;;19.40;67.10;;;;;;5060187;28;20024;-74
2023/09/28 09:25:41;;;;;;;29.73;6.03;;;19.50;67.10;;;;;;5063607;28;20029;-74
2023/09/28 09:28:07;;;;;;;32.13;5.80;;;19.70;67.50;;;;;;5066709;28;20467;-75
2023/09/28 09:30:35;;;;;;;29.90;4.78;;;20.00;66.70;;;;;;5058102;28;20046;-76
2023/09/28 09:33:01;;;;;;;33.57;5.10;;;19.90;66.50;;;;;;5060457;28;20082;-74
2023/09/28 09:35:30;;;;;;;25.92;5.15;;;19.80;66.70;;;;;;5047828;28;20283;-77
2023/09/28 09:37:56;;;;;;;26.40;4.35;;;20.00;67.10;;;;;;5059867;28;20060;-76
2023/09/28 09:40:21;;;;;;;27.13;4.50;;;20.30;65.80;;;;;;5045216;28;20130;-73
2023/09/28 09:42:47;;;;;;;27.63;4.63;;;20.50;65.60;;;;;;5057590;28;20301;-75
2023/09/28 09:45:13;;;;;;;31.05;5.20;;;20.60;64.70;;;;;;5054898;28;20492;-75
2023/09/28 09:47:46;;;;;;;24.98;5.70;;;20.70;65.50;;;;;;5040593;28;20036;-77
2023/09/28 09:50:14;;;;;;;27.67;4.72;;;20.70;65.10;;;;;;5052041;28;20032;-76
2023/09/28 09:52:42;;;;;;;20.45;4.68;;;20.50;64.90;;;;;;5047162;28;20090;-77
2023/09/28 09:55:08;;;;;;;24.63;4.83;;;20.50;64.90;;;;;;5057407;28;20392;-76
2023/09/28 09:57:37;;;;;;;28.67;4.70;;;20.50;64.90;;;;;;5058126;28;20051;-77
2023/09/28 10:00:07;;;;;;;28.48;4.47;;;20.40;65.10;;;;;;5064867;28;20051;-76
2023/09/28 10:02:36;;;;;;;31.25;5.47;;;20.50;65.80;;;;;;5056212;28;20709;-76
2023/09/28 10:05:08;;;;;;;29.42;4.45;;;20.70;64.50;;;;;;5070618;28;20044;-77
2023/09/28 10:07:36;;;;;;;20.33;4.03;;;20.60;61.80;;;;;;5047912;28;20082;-76
2023/09/28 10:10:03;;;;;;;32.63;4.82;;;20.70;60.70;;;;;;5061652;28;20028;-77
2023/09/28 10:12:30;;;;;;;20.42;4.57;;;20.80;59.90;;;;;;5053643;28;20101;-76
2023/09/28 10:14:58;;;;;;;30.63;4.50;;;20.60;60.00;;;;;;5052104;28;20040;-74
2023/09/28 10:17:25;;;;;;;25.73;4.80;;;20.50;60.30;;;;;;5043754;28;20056;-72
2023/09/28 10:19:56;;;;;;;28.38;4.82;;;20.70;59.80;;;;;;5056809;28;20032;-74
2023/09/28 10:22:23;;;;;;;28.25;4.50;;;20.60;59.00;;;;;;5048586;28;20040;-75
2023/09/28 10:24:48;;;;;;;30.02;5.05;;;20.60;58.40;;;;;;5057308;28;20090;-74
2023/09/28 10:27:14;;;;;;;25.63;4.78;;;20.40;58.60;;;;;;5042072;28;20510;-75
2023/09/28 10:29:41;;;;;;;26.70;4.15;;;20.40;59.40;;;;;;5051521;28;20252;-75
2023/09/28 10:32:28;;;;;;;26.70;4.65;;;20.50;59.20;;;;;;5046743;28;20082;-73
2023/09/28 10:35:12;;;;;;;22.83;4.30;;;20.60;58.30;;;;;;5057025;28;20040;-74
2023/09/28 10:37:37;;;;;;;29.83;4.65;;;20.80;58.00;;;;;;5048150;28;20607;-74
2023/09/28 10:40:05;;;;;;;22.38;4.78;;;20.90;58.20;;;;;;5058321;28;20050;-74
2023/09/28 10:42:32;;;;;;;23.20;4.28;;;21.00;58.60;;;;;;5046146;28;20103;-76
2023/09/28 10:45:00;;;;;;;21.17;4.60;;;21.00;57.10;;;;;;5057996;28;20028;-74
2023/09/28 10:47:27;;;;;;;19.80;4.22;;;20.90;57.30;;;;;;5058479;28;20443;-74
2023/09/28 10:49:59;;;;;;;21.70;4.57;;;21.00;56.80;;;;;;5056730;28;20120;-75
2023/09/28 10:52:24;;;;;;;27.80;4.65;;;20.60;56.90;;;;;;5060873;28;20048;-75
2023/09/28 10:54:51;;;;;;;25.10;4.00;;;20.60;57.70;;;;;;5058113;28;20200;-74
2023/09/28 10:57:17;;;;;;;22.10;4.63;;;20.60;58.30;;;;;;5063624;28;21173;-72
2023/09/28 10:59:42;;;;;;;22.27;4.10;;;20.60;56.90;;;;;;5048713;28;20104;-73
2023/09/28 11:02:09;;;;;;;26.48;4.28;;;20.40;56.30;;;;;;5055267;28;20044;-73
2023/09/28 11:04:39;;;;;;;21.23;4.47;;;20.40;56.60;;;;;;5032042;28;20035;-72
2023/09/28 11:07:06;;;;;;;24.00;4.95;;;20.30;56.50;;;;;;5054565;28;20036;-73
2023/09/28 11:09:32;;;;;;;24.73;5.22;;;20.40;57.10;;;;;;5036917;28;20680;-75
2023/09/28 11:11:58;;;;;;;22.33;3.55;;;20.50;56.50;;;;;;5055835;28;20067;-73
2023/09/28 11:14:26;;;;;;;15.40;3.30;;;20.50;55.60;;;;;;5038348;28;20523;-73
2023/09/28 11:16:53;;;;;;;19.00;3.85;;;20.60;56.00;;;;;;5057245;28;20772;-74
2023/09/28 11:19:20;;;;;;;22.95;3.55;;;20.80;54.70;;;;;;5042006;28;20453;-74
2023/09/28 11:21:45;;;;;;;28.38;4.60;;;21.00;55.00;;;;;;5053563;28;20029;-74
2023/09/28 11:24:11;;;;;;;28.15;4.18;;;20.80;53.60;;;;;;5048669;28;20125;-73
2023/09/28 11:26:39;;;;;;;18.75;3.95;;;20.90;52.70;;;;;;5055263;28;20051;-73
2023/09/28 11:29:05;;;;;;;20.02;4.13;;;20.90;53.80;;;;;;5030498;28;20603;-74
2023/09/28 11:31:35;;;;;;;29.55;3.63;;;20.90;53.90;;;;;;5055853;28;20028;-73
2023/09/28 11:34:02;;;;;;;31.05;4.40;;;21.00;53.30;;;;;;5043328;28;20036;-74
2023/09/28 11:36:28;;;;;;;21.00;4.53;;;20.80;55.10;;;;;;5049853;28;20357;-74
2023/09/28 11:38:55;;;;;;;26.83;3.78;;;20.80;55.80;;;;;;5056696;28;20072;-75
2023/09/28 11:41:23;;;;;;;25.35;4.00;;;20.80;56.20;;;;;;5042037;28;20157;-73
2023/09/28 11:43:52;;;;;;;25.98;3.90;;;20.80;54.70;;;;;;5055353;28;20047;-75
2023/09/28 11:46:20;;;;;;;26.58;4.28;;;20.90;54.90;;;;;;5045781;28;20024;-77
2023/09/28 11:48:45;;;;;;;24.10;4.50;;;21.00;54.60;;;;;;5049731;28;20029;-75
2023/09/28 11:51:15;;;;;;;23.38;4.07;;;21.00;55.70;;;;;;5046429;28;20048;-75
2023/09/28 11:53:42;;;;;;;24.75;4.38;;;20.80;54.80;;;;;;5060273;28;20055;-75
2023/09/28 11:56:10;;;;;;;30.70;4.43;;;20.80;55.90;;;;;;5047230;28;20146;-73
2023/09/28 11:58:36;;;;;;;23.15;4.80;;;20.80;55.30;;;;;;5065751;28;20040;-73
2023/09/28 12:01:03;;;;;;;28.10;5.47;;;21.00;55.60;;;;;;5050488;28;20439;-74
2023/09/28 12:03:28;;;;;;;27.70;3.97;;;20.80;58.30;;;;;;5057977;28;20037;-74
2023/09/28 12:05:55;;;;;;;37.72;5.18;;;20.80;60.30;;;;;;5052138;28;20040;-74
2023/09/28 12:08:21;;;;;;;23.33;4.32;;;20.60;61.70;;;;;;5059809;28;20297;-75
2023/09/28 12:10:47;;;;;;;23.92;4.72;;;20.50;61.10;;;;;;5049401;28;20028;-75
2023/09/28 12:13:13;;;;;;;27.38;4.72;;;20.70;60.10;;;;;;5062404;28;20621;-73
2023/09/28 12:15:39;;;;;;;28.38;4.00;;;21.10;59.60;;;;;;5037576;28;20039;-73
2023/09/28 12:18:04;;;;;;;19.73;4.10;;;21.40;59.40;;;;;;5062649;28;20503;-73
2023/09/28 12:20:31;;;;;;;22.95;3.65;;;21.40;58.30;;;;;;5055612;28;20082;-73
2023/09/28 12:22:57;;;;;;;21.95;4.15;;;21.30;58.50;;;;;;5051043;28;20096;-75
2023/09/28 12:25:23;;;;;;;23.92;4.40;;;21.50;57.90;;;;;;5062507;28;20032;-73
2023/09/28 12:27:49;;;;;;;21.23;3.50;;;21.60;57.50;;;;;;5044846;28;20101;-73
2023/09/28 12:30:21;;;;;;;22.13;3.78;;;21.30;57.80;;;;;;5064457;28;20496;-74
2023/09/28 12:32:48;;;;;;;29.27;4.55;;;21.20;57.60;;;;;;5051648;28;20166;-74